Time;durP1;ratioP1;P1;durP2;ratioP2;P2;SDS_P1;SDS_P2;PMS_P1;PMS_P2;Temp;Humidity;BMP_temperature;BMP_pressure;BME280_temperature;BME280_humidity;BME280_pressure;Samples;Min_cycle;Max_cycle;Signal;HPM_P1;HPM_P2
2022/11/21 00:00:38;;;;;;;104.23;38.37;;;;;;;;;;5067808;28;20291;-65
2022/11/21 00:03:04;;;;;;;103.33;35.37;;;;;;;;;;5068535;28;20052;-65
2022/11/21 00:05:30;;;;;;;86.53;34.47;;;;;;;;;;5068278;28;20056;-66
2022/11/21 00:07:57;;;;;;;100.63;37.10;;;;;;;;;;5068418;28;20055;-66
2022/11/21 00:10:23;;;;;;;85.67;33.60;;;;;;;;;;5068252;28;20903;-66
2022/11/21 00:12:53;;;;;;;88.60;33.97;;;;;;;;;;5068084;28;20056;-66
2022/11/21 00:15:20;;;;;;;83.57;33.23;;;;;;;;;;5050918;28;20060;-66
2022/11/21 00:17:46;;;;;;;119.70;37.30;;;;;;;;;;5048164;28;20258;-66
2022/11/21 00:20:12;;;;;;;106.00;37.63;;;;;;;;;;5053164;28;20044;-66
2022/11/21 00:22:38;;;;;;;108.97;35.90;;;;;;;;;;5065400;28;20568;-65
2022/11/21 00:25:04;;;;;;;109.77;38.53;;;;;;;;;;5047811;28;20055;-66
2022/11/21 00:27:30;;;;;;;88.40;34.13;;;;;;;;;;5049726;28;20306;-65
2022/11/21 00:29:56;;;;;;;75.00;31.53;;;;;;;;;;5050629;28;20537;-66
2022/11/21 00:32:22;;;;;;;103.13;35.70;;;;;;;;;;5066101;28;20478;-66
2022/11/21 00:34:48;;;;;;;86.70;34.43;;;;;;;;;;5059083;28;20049;-65
2022/11/21 00:37:14;;;;;;;121.83;37.93;;;;;;;;;;5051813;28;20499;-65
2022/11/21 00:39:40;;;;;;;109.27;36.80;;;;;;;;;;5051714;28;20276;-66
2022/11/21 00:42:06;;;;;;;93.77;33.97;;;;;;;;;;5033729;28;20299;-66
2022/11/21 00:44:33;;;;;;;87.77;33.80;;;;;;;;;;5051796;28;20099;-66
2022/11/21 00:46:59;;;;;;;133.07;38.00;;;;;;;;;;5062996;28;20057;-66
2022/11/21 00:49:25;;;;;;;106.70;36.07;;;;;;;;;;5070324;28;20557;-66
2022/11/21 00:51:51;;;;;;;90.23;36.33;;;;;;;;;;5071385;28;20287;-66
2022/11/21 00:54:17;;;;;;;120.27;39.60;;;;;;;;;;5071042;28;20049;-66
2022/11/21 00:56:43;;;;;;;87.53;35.57;;;;;;;;;;5071415;28;20098;-65
2022/11/21 00:59:09;;;;;;;111.37;37.70;;;;;;;;;;5071287;28;20048;-66
2022/11/21 01:01:35;;;;;;;83.17;35.50;;;;;;;;;;5071060;28;20699;-65
2022/11/21 01:04:01;;;;;;;125.87;38.57;;;;;;;;;;5053448;28;20282;-66
2022/11/21 01:06:27;;;;;;;88.17;33.17;;;;;;;;;;5052377;28;20084;-66
2022/11/21 01:08:53;;;;;;;95.73;34.83;;;;;;;;;;5051055;28;20151;-66
2022/11/21 01:11:20;;;;;;;75.93;32.37;;;;;;;;;;5051098;28;20318;-66
2022/11/21 01:13:47;;;;;;;78.60;32.03;;;;;;;;;;5050832;28;20052;-66
2022/11/21 01:16:18;;;;;;;89.67;35.50;;;;;;;;;;5059716;28;20163;-65
2022/11/21 01:18:44;;;;;;;62.47;29.27;;;;;;;;;;5069609;28;20864;-66
2022/11/21 01:21:15;;;;;;;71.63;29.53;;;;;;;;;;5070631;28;20282;-66
2022/11/21 01:23:41;;;;;;;80.27;32.73;;;;;;;;;;5051123;28;20322;-65
2022/11/21 01:26:09;;;;;;;88.37;33.37;;;;;;;;;;5050618;28;20295;-65
2022/11/21 01:28:35;;;;;;;113.77;36.47;;;;;;;;;;5050659;28;20056;-66
2022/11/21 01:31:09;;;;;;;87.30;34.07;;;;;;;;;;5050639;28;20842;-66
2022/11/21 01:33:35;;;;;;;118.57;40.75;;;;;;;;;;5050593;28;20299;-66
2022/11/21 01:36:08;;;;;;;112.50;38.50;;;;;;;;;;5050941;28;20127;-65
2022/11/21 01:38:34;;;;;;;101.03;35.75;;;;;;;;;;5049856;28;20370;-66
2022/11/21 01:41:01;;;;;;;66.00;30.80;;;;;;;;;;5032833;28;20049;-66
2022/11/21 01:43:27;;;;;;;85.37;33.03;;;;;;;;;;5050828;28;20050;-66
2022/11/21 01:45:54;;;;;;;106.37;36.17;;;;;;;;;;5050074;28;20045;-66
2022/11/21 01:48:22;;;;;;;84.27;34.50;;;;;;;;;;5032363;28;20323;-65
2022/11/21 01:50:48;;;;;;;98.97;35.20;;;;;;;;;;5050433;28;20110;-66
2022/11/21 01:53:14;;;;;;;91.93;35.77;;;;;;;;;;5051136;28;20915;-66
2022/11/21 01:55:40;;;;;;;96.20;34.83;;;;;;;;;;5062876;28;20040;-66
2022/11/21 01:58:06;;;;;;;74.27;32.30;;;;;;;;;;5068544;28;20053;-67
2022/11/21 02:00:36;;;;;;;109.53;35.90;;;;;;;;;;5059735;28;20044;-66
2022/11/21 02:03:05;;;;;;;124.57;38.10;;;;;;;;;;5049962;28;20287;-66
2022/11/21 02:05:34;;;;;;;86.77;32.80;;;;;;;;;;5049155;28;20399;-66
2022/11/21 02:08:06;;;;;;;73.60;31.40;;;;;;;;;;5049911;28;20315;-66
2022/11/21 02:10:34;;;;;;;59.80;28.47;;;;;;;;;;5050061;28;20048;-66
2022/11/21 02:13:00;;;;;;;71.37;30.27;;;;;;;;;;5055073;28;20053;-66
2022/11/21 02:15:28;;;;;;;71.83;31.27;;;;;;;;;;5068193;28;20052;-66
2022/11/21 02:17:54;;;;;;;92.13;34.30;;;;;;;;;;5069473;28;20119;-66
2022/11/21 02:20:22;;;;;;;95.17;34.77;;;;;;;;;;5069778;28;20320;-66
2022/11/21 02:22:51;;;;;;;94.27;35.80;;;;;;;;;;5069708;28;20288;-66
2022/11/21 02:25:21;;;;;;;86.17;33.67;;;;;;;;;;5051118;28;20314;-66
2022/11/21 02:27:49;;;;;;;101.20;37.40;;;;;;;;;;5062340;28;20577;-66
2022/11/21 02:30:15;;;;;;;83.03;33.47;;;;;;;;;;5056968;28;20828;-66
2022/11/21 02:32:46;;;;;;;87.83;35.90;;;;;;;;;;5069022;28;20036;-66
2022/11/21 02:35:13;;;;;;;82.50;34.27;;;;;;;;;;5068843;28;20302;-64
2022/11/21 02:37:39;;;;;;;106.00;36.30;;;;;;;;;;5069177;28;20047;-66
2022/11/21 02:40:17;;;;;;;113.03;38.40;;;;;;;;;;5066865;28;20887;-67
2022/11/21 02:42:47;;;;;;;125.83;37.50;;;;;;;;;;5064105;28;20051;-66
2022/11/21 02:45:19;;;;;;;90.57;35.77;;;;;;;;;;5068946;28;20052;-66
2022/11/21 02:47:48;;;;;;;100.37;35.07;;;;;;;;;;5065935;28;20899;-65
2022/11/21 02:50:14;;;;;;;107.93;37.63;;;;;;;;;;5068969;28;20507;-65
2022/11/21 02:52:40;;;;;;;96.90;36.83;;;;;;;;;;5069337;28;20129;-65
2022/11/21 02:55:07;;;;;;;105.60;36.77;;;;;;;;;;5068056;28;20697;-64
2022/11/21 02:57:33;;;;;;;116.60;39.87;;;;;;;;;;5068395;28;20051;-65
2022/11/21 02:59:59;;;;;;;132.57;39.33;;;;;;;;;;5068745;28;20305;-65
2022/11/21 03:02:25;;;;;;;101.80;35.37;;;;;;;;;;5068954;28;20302;-64
2022/11/21 03:04:51;;;;;;;137.93;39.17;;;;;;;;;;5055313;28;20562;-64
2022/11/21 03:07:17;;;;;;;146.30;41.00;;;;;;;;;;5047839;28;20067;-65
2022/11/21 03:09:43;;;;;;;106.53;37.17;;;;;;;;;;5049002;28;20279;-64
2022/11/21 03:12:09;;;;;;;134.57;39.20;;;;;;;;;;5048558;28;20284;-64
2022/11/21 03:14:36;;;;;;;114.13;36.77;;;;;;;;;;5048718;28;20319;-64
2022/11/21 03:17:03;;;;;;;123.43;39.03;;;;;;;;;;5048850;28;20785;-64
2022/11/21 03:19:29;;;;;;;117.33;38.80;;;;;;;;;;5048731;28;20292;-64
2022/11/21 03:21:55;;;;;;;105.27;36.47;;;;;;;;;;5060961;28;20788;-64
2022/11/21 03:24:21;;;;;;;130.83;38.23;;;;;;;;;;5067534;28;20279;-65
2022/11/21 03:26:47;;;;;;;109.87;37.63;;;;;;;;;;5068738;28;20298;-64
2022/11/21 03:29:13;;;;;;;119.37;38.23;;;;;;;;;;5067136;28;20865;-64
2022/11/21 03:31:39;;;;;;;94.13;36.50;;;;;;;;;;5067813;28;20335;-64
2022/11/21 03:34:06;;;;;;;110.87;36.23;;;;;;;;;;5068481;28;20294;-64
2022/11/21 03:36:32;;;;;;;117.87;38.43;;;;;;;;;;5052407;28;20287;-64
2022/11/21 03:38:58;;;;;;;110.37;37.80;;;;;;;;;;5062592;28;20799;-64
2022/11/21 03:41:28;;;;;;;104.47;36.57;;;;;;;;;;5068438;28;20772;-64
2022/11/21 03:43:54;;;;;;;92.40;36.07;;;;;;;;;;5068526;28;20302;-64
2022/11/21 03:46:21;;;;;;;94.73;35.83;;;;;;;;;;5068501;28;20420;-64
2022/11/21 03:48:47;;;;;;;107.67;39.03;;;;;;;;;;5068185;28;20870;-64
2022/11/21 03:51:13;;;;;;;107.77;37.97;;;;;;;;;;5053687;28;20340;-64
2022/11/21 03:53:39;;;;;;;115.83;41.47;;;;;;;;;;5048567;28;20816;-63
2022/11/21 03:56:05;;;;;;;116.77;38.57;;;;;;;;;;5049082;28;21021;-64
2022/11/21 03:58:31;;;;;;;104.73;36.50;;;;;;;;;;5048479;28;20288;-64
2022/11/21 04:00:57;;;;;;;109.70;35.23;;;;;;;;;;5048394;28;20052;-64
2022/11/21 04:03:23;;;;;;;101.90;34.73;;;;;;;;;;5048371;28;20821;-63
2022/11/21 04:05:49;;;;;;;98.80;34.40;;;;;;;;;;5048490;28;20345;-64
2022/11/21 04:08:15;;;;;;;98.43;35.10;;;;;;;;;;5050161;28;20304;-64
2022/11/21 04:10:47;;;;;;;85.70;31.97;;;;;;;;;;5052693;28;20283;-63
2022/11/21 04:13:13;;;;;;;79.70;30.07;;;;;;;;;;5052416;28;20295;-63
2022/11/21 04:15:42;;;;;;;92.23;30.73;;;;;;;;;;5051925;28;20568;-63
2022/11/21 04:18:09;;;;;;;94.60;31.57;;;;;;;;;;5060257;28;20294;-63
2022/11/21 04:20:35;;;;;;;91.30;31.70;;;;;;;;;;5072081;28;21136;-63
2022/11/21 04:23:01;;;;;;;82.40;32.37;;;;;;;;;;5071844;28;20293;-62
2022/11/21 04:25:31;;;;;;;82.80;31.07;;;;;;;;;;5051853;28;20619;-63
2022/11/21 04:28:01;;;;;;;84.87;30.53;;;;;;;;;;5051872;28;21052;-62
2022/11/21 04:30:27;;;;;;;70.13;28.57;;;;;;;;;;5052574;28;20291;-62
2022/11/21 04:32:54;;;;;;;79.20;29.33;;;;;;;;;;5052090;28;20781;-62
2022/11/21 04:35:20;;;;;;;66.60;29.07;;;;;;;;;;5051680;28;20360;-62
2022/11/21 04:37:47;;;;;;;77.50;28.63;;;;;;;;;;5052029;28;20291;-61
2022/11/21 04:40:13;;;;;;;71.57;28.63;;;;;;;;;;5050272;28;20291;-62
2022/11/21 04:42:46;;;;;;;82.80;31.87;;;;;;;;;;5051554;28;20786;-62
2022/11/21 04:45:13;;;;;;;89.18;34.70;;;;;;;;;;5053527;28;20313;-62
2022/11/21 04:47:40;;;;;;;86.93;33.73;;;;;;;;;;5051179;28;20060;-62
2022/11/21 04:50:06;;;;;;;83.00;34.17;;;;;;;;;;5051618;28;20638;-62
2022/11/21 04:52:33;;;;;;;78.77;32.63;;;;;;;;;;5051655;28;20291;-61
2022/11/21 04:54:59;;;;;;;83.30;33.27;;;;;;;;;;5050706;28;20287;-61
2022/11/21 04:57:27;;;;;;;78.97;33.33;;;;;;;;;;5051542;28;20284;-61
2022/11/21 04:59:53;;;;;;;74.60;32.03;;;;;;;;;;5051600;28;20293;-61
2022/11/21 05:02:19;;;;;;;82.37;32.90;;;;;;;;;;5051392;28;20287;-62
2022/11/21 05:04:45;;;;;;;70.70;30.00;;;;;;;;;;5051195;28;20284;-62
2022/11/21 05:07:12;;;;;;;95.07;35.50;;;;;;;;;;5050928;28;20786;-61
2022/11/21 05:09:38;;;;;;;82.80;33.20;;;;;;;;;;5051056;28;20337;-61
2022/11/21 05:14:49;;;;;;;74.10;32.23;;;;;;;;;;5069049;28;20374;-61
2022/11/21 05:17:15;;;;;;;73.03;32.50;;;;;;;;;;5070890;28;20275;-61
2022/11/21 05:19:41;;;;;;;74.40;33.43;;;;;;;;;;5066136;28;20357;-61
2022/11/21 05:22:07;;;;;;;77.53;32.83;;;;;;;;;;5050890;28;20287;-61
2022/11/21 05:24:33;;;;;;;79.33;34.67;;;;;;;;;;5058389;28;20354;-61
2022/11/21 05:26:59;;;;;;;82.17;35.13;;;;;;;;;;5049520;28;20793;-61
2022/11/21 05:29:25;;;;;;;83.97;36.33;;;;;;;;;;5050985;28;20380;-62
2022/11/21 05:31:51;;;;;;;80.80;32.70;;;;;;;;;;5050881;28;20371;-63
2022/11/21 05:34:17;;;;;;;73.37;33.70;;;;;;;;;;5050524;28;20286;-62
2022/11/21 05:36:43;;;;;;;84.87;36.40;;;;;;;;;;5053111;28;20287;-62
2022/11/21 05:39:09;;;;;;;74.83;34.10;;;;;;;;;;5070204;28;20286;-62
2022/11/21 05:41:35;;;;;;;75.80;34.17;;;;;;;;;;5059451;28;20303;-62
2022/11/21 05:44:01;;;;;;;81.17;36.00;;;;;;;;;;5048661;28;20287;-62
2022/11/21 05:46:27;;;;;;;86.27;34.53;;;;;;;;;;5062284;28;20310;-62
2022/11/21 05:48:54;;;;;;;84.43;37.03;;;;;;;;;;5049742;28;20314;-62
2022/11/21 05:51:21;;;;;;;76.40;34.77;;;;;;;;;;5049236;28;20367;-62
2022/11/21 05:53:47;;;;;;;76.23;36.30;;;;;;;;;;5054236;28;20299;-62
2022/11/21 05:56:14;;;;;;;84.40;38.17;;;;;;;;;;5070217;28;20293;-62
2022/11/21 05:58:41;;;;;;;78.67;34.17;;;;;;;;;;5069904;28;20287;-62
2022/11/21 06:01:07;;;;;;;79.13;33.13;;;;;;;;;;5051924;28;20334;-62
2022/11/21 06:03:35;;;;;;;87.03;35.33;;;;;;;;;;5050453;28;20283;-62
2022/11/21 06:06:01;;;;;;;79.50;33.63;;;;;;;;;;5049200;28;20287;-62
2022/11/21 06:08:28;;;;;;;78.77;33.17;;;;;;;;;;5047920;28;20682;-62
2022/11/21 06:10:54;;;;;;;80.80;35.27;;;;;;;;;;5048184;28;20313;-62
2022/11/21 06:13:23;;;;;;;72.17;32.83;;;;;;;;;;5048123;28;20295;-62
2022/11/21 06:15:52;;;;;;;73.93;33.83;;;;;;;;;;5048635;28;20294;-62
2022/11/21 06:18:18;;;;;;;81.70;36.07;;;;;;;;;;5047661;28;20326;-62
2022/11/21 06:20:45;;;;;;;81.43;34.37;;;;;;;;;;5049002;28;20313;-62
2022/11/21 06:23:11;;;;;;;87.20;34.87;;;;;;;;;;5058571;28;20346;-62
2022/11/21 06:25:38;;;;;;;81.30;33.87;;;;;;;;;;5068981;28;20297;-62
2022/11/21 06:28:04;;;;;;;79.47;33.67;;;;;;;;;;5060435;28;20444;-63
2022/11/21 06:30:30;;;;;;;78.30;33.63;;;;;;;;;;5049625;28;20329;-62
2022/11/21 06:32:56;;;;;;;87.80;34.20;;;;;;;;;;5061058;28;20811;-63
2022/11/21 06:35:22;;;;;;;81.40;34.90;;;;;;;;;;5069352;28;20649;-63
2022/11/21 06:37:48;;;;;;;80.70;33.40;;;;;;;;;;5053794;28;20299;-62
2022/11/21 06:40:14;;;;;;;76.00;33.70;;;;;;;;;;5067543;28;20286;-62
2022/11/21 06:42:40;;;;;;;73.97;32.93;;;;;;;;;;5068854;28;20282;-62
2022/11/21 06:45:06;;;;;;;75.63;34.67;;;;;;;;;;5061758;28;20348;-62
2022/11/21 06:47:36;;;;;;;84.67;34.00;;;;;;;;;;5048333;28;20308;-62
2022/11/21 06:50:02;;;;;;;79.03;35.00;;;;;;;;;;5049383;28;20291;-63
2022/11/21 06:52:28;;;;;;;91.60;35.77;;;;;;;;;;5048812;28;20322;-62
2022/11/21 06:54:54;;;;;;;76.20;33.30;;;;;;;;;;5049114;28;20654;-62
2022/11/21 06:57:20;;;;;;;84.37;34.17;;;;;;;;;;5048933;28;20306;-62
2022/11/21 06:59:46;;;;;;;77.70;32.33;;;;;;;;;;5049305;28;20284;-62
2022/11/21 07:02:12;;;;;;;79.80;34.63;;;;;;;;;;5049676;28;20279;-65
2022/11/21 07:04:39;;;;;;;75.90;32.57;;;;;;;;;;5061538;28;20302;-65
2022/11/21 07:07:05;;;;;;;77.17;33.47;;;;;;;;;;5066835;28;20800;-65
2022/11/21 07:09:32;;;;;;;83.77;34.70;;;;;;;;;;5068737;28;20309;-65
2022/11/21 07:13:20;;;;;;;86.27;34.80;;;;;;;;;;5052693;28;20645;-65
2022/11/21 07:14:45;;;;;;;95.70;37.00;;;;;;;;;;5048462;28;20383;-65
2022/11/21 07:17:11;;;;;;;86.83;39.67;;;;;;;;;;5048636;28;20291;-65
2022/11/21 07:19:38;;;;;;;90.73;39.27;;;;;;;;;;5059417;28;20381;-63
2022/11/21 07:22:04;;;;;;;86.80;39.37;;;;;;;;;;5068561;28;20328;-62
2022/11/21 07:24:30;;;;;;;93.50;40.97;;;;;;;;;;5068205;28;20278;-62
2022/11/21 07:26:56;;;;;;;95.60;41.30;;;;;;;;;;5066556;28;20286;-62
2022/11/21 07:29:22;;;;;;;106.10;41.47;;;;;;;;;;5060309;28;20403;-62
2022/11/21 07:31:48;;;;;;;100.87;39.27;;;;;;;;;;5063811;28;20664;-62
2022/11/21 07:34:14;;;;;;;110.27;43.43;;;;;;;;;;5066714;28;20317;-62
2022/11/21 07:36:40;;;;;;;117.53;45.90;;;;;;;;;;5066512;28;20274;-62
2022/11/21 07:39:06;;;;;;;125.13;43.57;;;;;;;;;;5065704;28;20916;-62
2022/11/21 07:41:32;;;;;;;141.50;48.27;;;;;;;;;;5067562;28;20294;-62
2022/11/21 07:43:58;;;;;;;147.53;49.87;;;;;;;;;;5073191;28;20328;-62
2022/11/21 07:46:24;;;;;;;205.13;58.97;;;;;;;;;;5072534;28;20294;-62
2022/11/21 07:48:50;;;;;;;244.33;64.83;;;;;;;;;;5072011;28;20402;-63
2022/11/21 07:51:16;;;;;;;286.53;63.70;;;;;;;;;;5073771;28;20289;-62
2022/11/21 07:53:42;;;;;;;289.90;62.03;;;;;;;;;;5072048;28;20803;-62
2022/11/21 07:56:09;;;;;;;258.70;59.97;;;;;;;;;;5072280;28;21044;-62
2022/11/21 07:58:35;;;;;;;348.80;67.80;;;;;;;;;;5073981;28;20271;-62
2022/11/21 08:01:05;;;;;;;390.60;71.57;;;;;;;;;;5073730;28;20784;-64
2022/11/21 08:03:34;;;;;;;351.40;63.97;;;;;;;;;;5070505;28;20283;-64
2022/11/21 08:06:02;;;;;;;336.97;63.50;;;;;;;;;;5072433;28;20282;-64
2022/11/21 08:08:28;;;;;;;305.77;61.23;;;;;;;;;;5071096;28;20313;-64
2022/11/21 08:10:54;;;;;;;261.80;56.63;;;;;;;;;;5073492;28;20290;-64
2022/11/21 08:13:21;;;;;;;410.27;69.03;;;;;;;;;;5073629;28;20282;-64
2022/11/21 08:15:47;;;;;;;405.43;71.37;;;;;;;;;;5069327;28;20314;-64
2022/11/21 08:18:14;;;;;;;326.83;59.67;;;;;;;;;;5070352;28;20287;-64
2022/11/21 08:20:40;;;;;;;314.23;61.50;;;;;;;;;;5073467;28;20320;-64
2022/11/21 08:23:07;;;;;;;275.07;57.43;;;;;;;;;;5073470;28;20788;-64
2022/11/21 08:25:34;;;;;;;290.23;57.33;;;;;;;;;;5074150;28;20279;-64
2022/11/21 08:28:01;;;;;;;374.03;67.10;;;;;;;;;;5072928;28;20322;-64
2022/11/21 08:30:27;;;;;;;292.60;61.23;;;;;;;;;;5073791;28;20283;-64
2022/11/21 08:32:53;;;;;;;368.43;66.03;;;;;;;;;;5073781;28;20780;-64
2022/11/21 08:35:19;;;;;;;437.53;77.33;;;;;;;;;;5068843;28;20290;-64
2022/11/21 08:37:46;;;;;;;385.77;66.63;;;;;;;;;;5071602;28;20032;-64
2022/11/21 08:40:12;;;;;;;349.03;64.27;;;;;;;;;;5073949;28;20290;-64
2022/11/21 08:42:38;;;;;;;315.90;62.97;;;;;;;;;;5068483;28;20800;-64
2022/11/21 08:45:07;;;;;;;383.90;65.63;;;;;;;;;;5072359;28;20282;-63
2022/11/21 08:47:33;;;;;;;363.23;64.57;;;;;;;;;;5071804;28;20287;-64
2022/11/21 08:49:59;;;;;;;362.00;66.57;;;;;;;;;;5072190;28;20306;-64
2022/11/21 08:52:25;;;;;;;399.77;75.50;;;;;;;;;;5072441;28;20787;-63
2022/11/21 08:54:51;;;;;;;406.90;73.67;;;;;;;;;;5071491;28;20633;-64
2022/11/21 08:57:17;;;;;;;362.63;70.73;;;;;;;;;;5070562;28;20382;-64
2022/11/21 08:59:43;;;;;;;276.03;59.57;;;;;;;;;;5069977;28;20271;-64
2022/11/21 09:02:10;;;;;;;266.60;56.37;;;;;;;;;;5069468;28;20271;-64
2022/11/21 09:04:36;;;;;;;326.03;62.50;;;;;;;;;;5070187;28;20290;-64
2022/11/21 09:07:03;;;;;;;290.80;60.70;;;;;;;;;;5068705;28;20294;-64
2022/11/21 09:09:29;;;;;;;198.20;49.27;;;;;;;;;;5066405;28;20357;-64
2022/11/21 09:11:55;;;;;;;158.70;43.97;;;;;;;;;;5066648;28;20450;-64
2022/11/21 09:19:51;;;;;;;119.77;36.93;;;;;;;;;;5050408;28;20284;-64
2022/11/21 09:22:17;;;;;;;129.30;36.97;;;;;;;;;;5053169;28;20291;-65
2022/11/21 09:24:43;;;;;;;134.90;38.37;;;;;;;;;;5069590;28;20094;-65
2022/11/21 09:27:09;;;;;;;121.23;38.57;;;;;;;;;;5069925;28;20433;-65
2022/11/21 09:29:35;;;;;;;130.40;38.73;;;;;;;;;;5068757;28;20049;-66
2022/11/21 09:32:01;;;;;;;122.40;39.70;;;;;;;;;;5070033;28;20053;-66
2022/11/21 09:34:27;;;;;;;102.93;35.30;;;;;;;;;;5069902;28;20290;-66
2022/11/21 09:36:54;;;;;;;93.83;31.03;;;;;;;;;;5068929;28;20505;-66
2022/11/21 09:39:20;;;;;;;80.17;29.30;;;;;;;;;;5069854;28;20079;-66
2022/11/21 09:42:05;;;;;;;72.43;25.23;;;;;;;;;;5070103;28;20053;-67
2022/11/21 09:44:46;;;;;;;75.70;27.70;;;;;;;;;;5069662;28;20052;-67
2022/11/21 09:47:18;;;;;;;71.67;25.90;;;;;;;;;;5069676;28;20290;-67
2022/11/21 09:49:46;;;;;;;80.50;26.93;;;;;;;;;;5069720;28;20048;-67
2022/11/21 09:52:14;;;;;;;63.73;25.83;;;;;;;;;;5068651;28;20422;-67
2022/11/21 09:54:45;;;;;;;90.57;29.43;;;;;;;;;;5069881;28;20048;-66
2022/11/21 09:57:14;;;;;;;100.13;32.50;;;;;;;;;;5068284;28;20524;-67
2022/11/21 09:59:40;;;;;;;93.33;29.83;;;;;;;;;;5068337;28;20048;-67
2022/11/21 10:02:25;;;;;;;90.57;30.23;;;;;;;;;;5068481;28;20059;-68
2022/11/21 10:04:52;;;;;;;80.37;29.07;;;;;;;;;;5068884;28;20076;-67
2022/11/21 10:07:24;;;;;;;81.53;26.67;;;;;;;;;;5069042;28;20813;-67
2022/11/21 10:09:50;;;;;;;68.70;26.77;;;;;;;;;;5069311;28;20495;-67
2022/11/21 10:12:38;;;;;;;60.43;24.83;;;;;;;;;;5069035;28;20851;-67
2022/11/21 10:15:17;;;;;;;60.53;25.10;;;;;;;;;;5069085;28;20295;-67
2022/11/21 10:18:01;;;;;;;48.10;21.47;;;;;;;;;;5067849;28;20057;-67
2022/11/21 10:20:31;;;;;;;57.77;23.50;;;;;;;;;;5067984;28;20079;-67
2022/11/21 10:23:10;;;;;;;51.60;22.50;;;;;;;;;;5069002;28;20135;-67
2022/11/21 10:25:37;;;;;;;59.70;23.17;;;;;;;;;;5067841;28;20048;-67
2022/11/21 10:28:18;;;;;;;54.33;20.60;;;;;;;;;;5067881;28;20055;-67
2022/11/21 10:30:45;;;;;;;51.80;22.20;;;;;;;;;;5068290;28;20078;-67
2022/11/21 10:33:26;;;;;;;40.23;20.17;;;;;;;;;;5068993;28;20051;-67
2022/11/21 10:35:57;;;;;;;42.53;20.83;;;;;;;;;;5068775;28;20052;-67
2022/11/21 10:38:28;;;;;;;45.73;20.57;;;;;;;;;;5068147;28;20052;-67
2022/11/21 10:41:05;;;;;;;42.20;20.70;;;;;;;;;;5068948;28;20070;-66
2022/11/21 10:46:29;;;;;;;41.13;20.17;;;;;;;;;;5068594;28;20495;-67
2022/11/21 10:48:59;;;;;;;40.73;18.83;;;;;;;;;;5068912;28;20089;-67
2022/11/21 10:51:36;;;;;;;41.63;19.60;;;;;;;;;;5068736;28;21037;-67
2022/11/21 10:56:48;;;;;;;28.77;16.53;;;;;;;;;;5068780;28;20661;-67
2022/11/21 10:59:25;;;;;;;32.17;17.53;;;;;;;;;;5068943;28;20051;-67
2022/11/21 11:02:02;;;;;;;30.93;17.87;;;;;;;;;;5068420;28;20067;-67
2022/11/21 11:04:28;;;;;;;37.47;17.87;;;;;;;;;;5050743;28;20463;-67
2022/11/21 11:06:55;;;;;;;31.73;17.07;;;;;;;;;;5068514;28;20051;-67
2022/11/21 11:09:24;;;;;;;38.77;19.50;;;;;;;;;;5067987;28;20055;-66
2022/11/21 11:11:50;;;;;;;36.67;20.13;;;;;;;;;;5068198;28;20051;-66
2022/11/21 11:14:26;;;;;;;40.30;19.60;;;;;;;;;;5067962;28;20052;-67
2022/11/21 11:16:52;;;;;;;34.20;19.33;;;;;;;;;;5067317;28;20052;-66
2022/11/21 11:19:26;;;;;;;35.67;19.63;;;;;;;;;;5068036;28;20055;-66
2022/11/21 11:21:52;;;;;;;;;;;;;;;;;;5068655;28;20048;-66
2022/11/21 11:24:21;;;;;;;33.53;18.10;;;;;;;;;;5068395;28;20388;-66
2022/11/21 11:26:47;;;;;;;30.23;18.43;;;;;;;;;;5067487;28;20059;-66
2022/11/21 11:29:18;;;;;;;32.53;17.53;;;;;;;;;;5066781;28;20055;-66
2022/11/21 11:31:49;;;;;;;31.90;16.97;;;;;;;;;;5067961;28;20049;-67
2022/11/21 11:34:15;;;;;;;29.63;18.00;;;;;;;;;;5067919;28;20513;-67
2022/11/21 11:36:50;;;;;;;31.53;17.53;;;;;;;;;;5066333;28;20041;-67
2022/11/21 11:39:18;;;;;;;30.03;17.53;;;;;;;;;;5066817;28;20407;-67
2022/11/21 11:47:58;;;;;;;35.27;17.80;;;;;;;;;;5066098;28;20452;-67
2022/11/21 11:50:26;;;;;;;34.40;18.50;;;;;;;;;;5062524;28;20044;-66
2022/11/21 11:52:55;;;;;;;38.20;19.37;;;;;;;;;;5051716;28;20041;-66
2022/11/21 11:55:24;;;;;;;35.23;19.57;;;;;;;;;;5051825;28;20076;-67
2022/11/21 11:57:52;;;;;;;33.63;18.87;;;;;;;;;;5067559;28;20181;-66
2022/11/21 12:00:40;;;;;;;35.23;19.43;;;;;;;;;;5065977;28;20502;-66
2022/11/21 12:03:10;;;;;;;35.17;19.03;;;;;;;;;;5049401;28;20045;-66
2022/11/21 12:05:37;;;;;;;36.23;19.23;;;;;;;;;;5062055;28;20066;-66
2022/11/21 12:08:06;;;;;;;34.73;17.73;;;;;;;;;;5067496;28;20049;-66
2022/11/21 12:13:33;;;;;;;28.23;17.07;;;;;;;;;;5047964;28;20107;-66
2022/11/21 12:16:03;;;;;;;29.70;17.23;;;;;;;;;;5047776;28;20063;-67
2022/11/21 12:18:33;;;;;;;30.97;17.90;;;;;;;;;;5047116;28;20049;-66
2022/11/21 12:21:02;;;;;;;26.53;17.80;;;;;;;;;;5046306;28;20045;-67
2022/11/21 12:23:31;;;;;;;27.90;17.40;;;;;;;;;;5049546;28;20107;-66
2022/11/21 12:26:03;;;;;;;34.63;20.03;;;;;;;;;;5059899;28;20051;-66
2022/11/21 12:28:35;;;;;;;31.87;19.23;;;;;;;;;;5050853;28;20044;-66
2022/11/21 12:31:10;;;;;;;30.77;18.17;;;;;;;;;;5051553;28;20049;-66
2022/11/21 12:33:40;;;;;;;36.93;20.10;;;;;;;;;;5060709;28;20055;-66
2022/11/21 12:36:16;;;;;;;33.93;20.47;;;;;;;;;;5070316;28;20482;-66
2022/11/21 12:39:04;;;;;;;42.13;21.63;;;;;;;;;;5071652;28;20048;-66
2022/11/21 12:44:45;;;;;;;41.97;22.07;;;;;;;;;;5062849;28;20056;-66
2022/11/21 12:47:30;;;;;;;45.50;22.73;;;;;;;;;;5050809;28;20084;-66
2022/11/21 12:55:44;;;;;;;50.20;23.20;;;;;;;;;;5050250;28;20486;-66
2022/11/21 12:58:13;;;;;;;48.43;22.70;;;;;;;;;;5049198;28;20073;-66
2022/11/21 13:01:06;;;;;;;47.50;22.73;;;;;;;;;;5049056;28;20045;-66
2022/11/21 13:03:44;;;;;;;50.03;23.53;;;;;;;;;;5049428;28;20068;-66
2022/11/21 13:06:14;;;;;;;51.20;23.90;;;;;;;;;;5049822;28;20131;-66
2022/11/21 13:08:40;;;;;;;58.40;26.20;;;;;;;;;;5050374;28;20128;-66
2022/11/21 13:14:04;;;;;;;62.13;25.77;;;;;;;;;;5050330;28;20060;-66
2022/11/21 13:16:38;;;;;;;63.00;26.58;;;;;;;;;;5050076;28;20130;-66
2022/11/21 13:19:04;;;;;;;;;;;;;;;;;;5049722;28;20061;-66
2022/11/21 13:21:41;;;;;;;65.27;27.37;;;;;;;;;;5048512;28;19921;-66
2022/11/21 13:24:07;;;;;;;73.67;29.13;;;;;;;;;;5049823;28;20041;-66
2022/11/21 13:26:33;;;;;;;63.37;26.70;;;;;;;;;;5048527;28;20352;-66
2022/11/21 13:29:20;;;;;;;70.87;30.13;;;;;;;;;;5049854;28;20044;-66
2022/11/21 13:31:46;;;;;;;73.23;28.30;;;;;;;;;;5049806;28;20080;-66
2022/11/21 13:34:33;;;;;;;71.77;30.20;;;;;;;;;;5049513;28;20052;-66
2022/11/21 13:36:59;;;;;;;74.20;29.57;;;;;;;;;;5049661;28;20053;-66
2022/11/21 13:39:27;;;;;;;69.23;28.17;;;;;;;;;;5049561;28;20065;-66
2022/11/21 13:44:41;;;;;;;66.90;28.10;;;;;;;;;;5049772;28;20045;-66
2022/11/21 13:47:25;;;;;;;81.20;29.57;;;;;;;;;;5049268;28;20499;-66
2022/11/21 13:49:51;;;;;;;94.37;33.50;;;;;;;;;;5049242;28;20391;-66
2022/11/21 13:52:20;;;;;;;82.20;30.00;;;;;;;;;;5048212;28;20060;-66
2022/11/21 13:54:55;;;;;;;94.03;31.07;;;;;;;;;;5049058;28;20507;-65
2022/11/21 13:57:29;;;;;;;90.00;30.53;;;;;;;;;;5049426;28;20049;-66
2022/11/21 13:59:55;;;;;;;;;;;;;;;;;;5048115;28;20507;-66
2022/11/21 14:02:24;;;;;;;89.10;31.67;;;;;;;;;;5047968;28;19979;-66
2022/11/21 14:04:50;;;;;;;102.80;34.40;;;;;;;;;;5049575;28;20388;-66
2022/11/21 14:07:21;;;;;;;97.90;33.57;;;;;;;;;;5048832;28;20115;-66
2022/11/21 14:09:49;;;;;;;106.90;37.03;;;;;;;;;;5049292;28;20072;-66
2022/11/21 14:12:34;;;;;;;113.17;37.77;;;;;;;;;;5048721;28;20215;-66
2022/11/21 14:15:00;;;;;;;123.93;38.23;;;;;;;;;;5048937;28;20064;-66
2022/11/21 14:17:29;;;;;;;143.03;40.27;;;;;;;;;;5049257;28;20049;-65
2022/11/21 14:19:57;;;;;;;129.00;37.00;;;;;;;;;;5048957;28;20049;-66
2022/11/21 14:22:26;;;;;;;150.50;39.87;;;;;;;;;;5049011;28;20044;-66
2022/11/21 14:24:53;;;;;;;153.67;42.47;;;;;;;;;;5047859;28;20103;-66
2022/11/21 14:27:24;;;;;;;164.20;42.27;;;;;;;;;;5048103;28;20071;-66
2022/11/21 14:29:50;;;;;;;164.47;39.90;;;;;;;;;;5048952;28;20434;-66
2022/11/21 14:32:16;;;;;;;143.77;39.03;;;;;;;;;;5047581;28;20565;-66
2022/11/21 14:34:42;;;;;;;163.63;42.93;;;;;;;;;;5048309;28;20044;-66
2022/11/21 14:37:10;;;;;;;164.97;41.47;;;;;;;;;;5048572;28;20048;-66
2022/11/21 14:39:40;;;;;;;190.23;46.20;;;;;;;;;;5048430;28;20542;-66
2022/11/21 14:42:10;;;;;;;205.40;49.57;;;;;;;;;;5048404;28;20117;-66
2022/11/21 14:44:36;;;;;;;185.87;44.63;;;;;;;;;;5047041;28;20059;-66
2022/11/21 14:47:15;;;;;;;199.13;45.90;;;;;;;;;;5047271;28;20091;-66
2022/11/21 14:49:54;;;;;;;200.73;46.70;;;;;;;;;;5047020;28;20063;-66
2022/11/21 14:52:22;;;;;;;215.37;47.00;;;;;;;;;;5048073;28;20137;-66
2022/11/21 14:54:56;;;;;;;228.73;50.53;;;;;;;;;;5047598;28;20055;-66
2022/11/21 14:57:24;;;;;;;237.80;52.22;;;;;;;;;;5048361;28;20052;-66